Time;durP1;ratioP1;P1;durP2;ratioP2;P2;SDS_P1;SDS_P2;PMS_P1;PMS_P2;Temp;Humidity;BMP_temperature;BMP_pressure;BME280_temperature;BME280_humidity;BME280_pressure;Samples;Min_cycle;Max_cycle;Signal;HPM_P1;HPM_P2
2023/05/25 00:00:34;;;;;;;23.77;14.65;;;;;;;9.05;100.00;102446.34;5070989;28;20024;-52
2023/05/25 00:02:59;;;;;;;26.05;14.40;;;;;;;9.04;100.00;102443.88;5070789;28;20029;-51
2023/05/25 00:05:26;;;;;;;24.63;13.85;;;;;;;8.99;100.00;102444.63;5071114;28;20029;-54
2023/05/25 00:07:54;;;;;;;24.88;14.40;;;;;;;8.99;100.00;102443.78;5071464;28;20028;-52
2023/05/25 00:10:20;;;;;;;22.58;13.68;;;;;;;8.95;100.00;102448.16;5071478;28;20111;-53
2023/05/25 00:12:46;;;;;;;24.38;14.15;;;;;;;8.92;100.00;102451.41;5071320;28;20106;-53
2023/05/25 00:15:11;;;;;;;23.38;14.30;;;;;;;8.87;100.00;102454.94;5071504;28;20036;-52
2023/05/25 00:17:36;;;;;;;25.58;14.35;;;;;;;8.84;100.00;102450.78;5071445;28;20444;-53
2023/05/25 00:20:08;;;;;;;25.92;14.45;;;;;;;8.83;100.00;102443.59;5075152;28;20109;-53
2023/05/25 00:22:37;;;;;;;22.45;14.68;;;;;;;8.79;100.00;102444.34;5075256;28;20037;-53
2023/05/25 00:25:03;;;;;;;22.63;13.85;;;;;;;8.79;100.00;102447.94;5075400;28;20029;-53
2023/05/25 00:27:30;;;;;;;24.95;13.77;;;;;;;8.72;100.00;102459.19;5074982;28;20051;-55
2023/05/25 00:29:55;;;;;;;23.55;14.05;;;;;;;8.69;100.00;102442.28;5075225;28;20067;-52
2023/05/25 00:32:21;;;;;;;23.25;14.27;;;;;;;8.67;100.00;102439.78;5075169;28;20037;-54
2023/05/25 00:34:46;;;;;;;21.40;14.20;;;;;;;8.63;100.00;102444.16;5067557;28;20029;-54
2023/05/25 00:37:12;;;;;;;24.75;14.27;;;;;;;8.63;100.00;102446.91;5075057;28;20078;-53
2023/05/25 00:39:37;;;;;;;22.10;13.93;;;;;;;8.62;100.00;102453.50;5075155;28;20060;-52
2023/05/25 00:42:05;;;;;;;24.70;14.45;;;;;;;8.57;100.00;102454.28;5074957;28;20031;-55
2023/05/25 00:44:30;;;;;;;25.02;14.25;;;;;;;8.59;100.00;102454.00;5075107;28;20438;-54
2023/05/25 00:46:56;;;;;;;23.75;14.32;;;;;;;8.51;100.00;102454.44;5074940;28;20035;-55
2023/05/25 00:49:22;;;;;;;23.45;13.57;;;;;;;8.51;100.00;102455.25;5074778;28;20369;-53
2023/05/25 00:51:48;;;;;;;23.90;14.35;;;;;;;8.47;100.00;102453.22;5074815;28;20123;-53
2023/05/25 00:54:14;;;;;;;23.50;14.23;;;;;;;8.44;100.00;102446.28;5074802;28;20035;-54
2023/05/25 00:56:45;;;;;;;22.15;13.90;;;;;;;8.40;100.00;102447.91;5074780;28;20047;-54
2023/05/25 00:59:16;;;;;;;22.15;14.18;;;;;;;8.35;100.00;102448.66;5056486;28;20584;-54
2023/05/25 01:01:44;;;;;;;24.13;14.35;;;;;;;8.34;100.00;102448.91;5074514;28;20040;-52
2023/05/25 01:04:14;;;;;;;23.45;13.80;;;;;;;8.34;100.00;102452.50;5074673;28;20064;-54
2023/05/25 01:06:42;;;;;;;22.02;13.90;;;;;;;8.34;100.00;102457.16;5074549;28;20096;-54
2023/05/25 01:09:10;;;;;;;25.60;14.32;;;;;;;8.25;100.00;102457.59;5074465;28;20029;-54
2023/05/25 01:11:38;;;;;;;22.50;13.27;;;;;;;8.25;100.00;102459.53;5074156;28;20052;-53
2023/05/25 01:14:05;;;;;;;24.38;14.05;;;;;;;8.25;100.00;102467.78;5074209;28;20048;-52
2023/05/25 01:16:30;;;;;;;23.45;14.10;;;;;;;8.23;100.00;102461.69;5074337;28;20063;-52
2023/05/25 01:18:56;;;;;;;23.85;14.13;;;;;;;8.19;100.00;102461.34;5074408;28;20425;-51
2023/05/25 01:21:27;;;;;;;22.15;14.07;;;;;;;8.16;100.00;102461.03;5073560;28;20545;-53
2023/05/25 01:24:07;;;;;;;23.08;13.82;;;;;;;8.15;100.00;102459.34;5074437;28;20034;-52
2023/05/25 01:26:39;;;;;;;23.25;13.90;;;;;;;8.13;100.00;102467.84;5073994;28;20024;-53
2023/05/25 01:29:05;;;;;;;22.67;14.18;;;;;;;8.12;100.00;102469.78;5073879;28;20060;-53
2023/05/25 01:31:32;;;;;;;22.80;13.90;;;;;;;8.12;100.00;102471.72;5073189;28;20069;-52
2023/05/25 01:33:58;;;;;;;24.50;14.05;;;;;;;8.11;100.00;102475.56;5066457;28;20016;-54
2023/05/25 01:36:24;;;;;;;22.15;13.70;;;;;;;8.08;100.00;102482.38;5073917;28;20086;-52
2023/05/25 01:38:49;;;;;;;21.58;13.52;;;;;;;8.08;100.00;102479.63;5073986;28;20079;-52
2023/05/25 01:41:15;;;;;;;22.73;14.00;;;;;;;8.03;100.00;102479.56;5074162;28;20024;-50
2023/05/25 01:43:41;;;;;;;24.30;15.05;;;;;;;8.03;100.00;102473.22;5073953;28;20036;-50
2023/05/25 01:46:18;;;;;;;24.48;14.25;;;;;;;7.96;100.00;102478.88;5073868;28;20146;-51
2023/05/25 01:48:53;;;;;;;23.70;13.85;;;;;;;7.91;100.00;102481.53;5073722;28;20032;-50
2023/05/25 01:51:35;;;;;;;22.65;14.15;;;;;;;7.90;100.00;102480.72;5073723;28;20037;-51
2023/05/25 01:54:16;;;;;;;21.75;14.23;;;;;;;7.81;100.00;102487.69;5073837;28;20033;-50
2023/05/25 01:56:45;;;;;;;24.55;14.10;;;;;;;7.77;100.00;102495.63;5073668;28;20094;-51
2023/05/25 01:59:12;;;;;;;22.83;14.63;;;;;;;7.75;100.00;102492.28;5073359;28;20039;-53
2023/05/25 02:01:39;;;;;;;23.58;14.45;;;;;;;7.70;100.00;102489.41;5073281;28;20074;-51
2023/05/25 02:04:05;;;;;;;23.55;14.15;;;;;;;7.65;100.00;102487.41;5073507;28;20052;-52
2023/05/25 02:06:30;;;;;;;25.10;13.95;;;;;;;7.64;100.00;102487.66;5073479;28;20268;-52
2023/05/25 02:08:56;;;;;;;23.42;14.20;;;;;;;7.63;100.00;102480.47;5073312;28;20032;-53
2023/05/25 02:11:21;;;;;;;23.92;13.80;;;;;;;7.62;100.00;102493.41;5073440;28;20044;-52
2023/05/25 02:13:46;;;;;;;23.23;14.70;;;;;;;7.60;100.00;102480.97;5073375;28;20123;-52
2023/05/25 02:16:11;;;;;;;24.30;15.32;;;;;;;7.57;100.00;102485.03;5073455;28;20392;-49
2023/05/25 02:18:37;;;;;;;25.63;16.48;;;;;;;7.57;100.00;102481.47;5073134;28;20036;-52
2023/05/25 02:21:02;;;;;;;24.95;16.42;;;;;;;7.54;100.00;102479.19;5073256;28;20105;-51
2023/05/25 02:23:27;;;;;;;27.17;18.63;;;;;;;7.54;100.00;102488.31;5073063;28;20396;-51
2023/05/25 02:25:53;;;;;;;27.33;19.38;;;;;;;7.47;100.00;102485.69;5072992;28;20078;-54
2023/05/25 02:28:18;;;;;;;28.63;20.23;;;;;;;7.41;100.00;102486.66;5072786;28;20488;-52
2023/05/25 02:30:44;;;;;;;27.65;19.60;;;;;;;7.39;100.00;102486.06;5072914;28;20396;-49
2023/05/25 02:33:09;;;;;;;28.88;20.38;;;;;;;7.38;100.00;102486.28;5067590;28;20510;-51
2023/05/25 02:35:34;;;;;;;30.17;19.83;;;;;;;7.34;100.00;102485.94;5070817;28;20448;-51
2023/05/25 02:38:00;;;;;;;31.70;19.52;;;;;;;7.33;100.00;102482.38;5072059;28;20035;-50
2023/05/25 02:40:25;;;;;;;31.48;19.65;;;;;;;7.32;100.00;102479.88;5072675;28;20036;-52
2023/05/25 02:42:51;;;;;;;30.83;20.17;;;;;;;7.30;100.00;102482.84;5072383;28;20062;-51
2023/05/25 02:45:16;;;;;;;29.17;19.73;;;;;;;7.31;100.00;102481.78;5072763;28;20063;-53
2023/05/25 02:47:42;;;;;;;29.08;20.00;;;;;;;7.27;100.00;102488.88;5072845;28;20384;-52
2023/05/25 02:50:07;;;;;;;32.80;20.67;;;;;;;7.23;100.00;102486.81;5072526;28;20068;-53
2023/05/25 02:52:33;;;;;;;30.63;20.17;;;;;;;7.16;100.00;102487.78;5072443;28;20028;-54
2023/05/25 02:54:58;;;;;;;29.13;19.58;;;;;;;7.13;100.00;102485.53;5072468;28;20024;-54
2023/05/25 02:57:23;;;;;;;27.73;19.73;;;;;;;7.09;100.00;102481.59;5072206;28;20027;-54
2023/05/25 02:59:49;;;;;;;29.55;21.67;;;;;;;7.09;100.00;102492.59;5072558;28;20029;-54
2023/05/25 03:02:17;;;;;;;30.35;20.58;;;;;;;7.07;100.00;102488.44;5072236;28;20150;-54
2023/05/25 03:04:45;;;;;;;28.40;19.33;;;;;;;7.08;100.00;102496.44;5072438;28;20028;-52
2023/05/25 03:07:13;;;;;;;29.40;20.45;;;;;;;7.04;100.00;102489.72;5072316;28;20159;-53
2023/05/25 03:09:38;;;;;;;27.38;19.13;;;;;;;7.04;100.00;102492.47;5072280;28;20163;-53
2023/05/25 03:12:04;;;;;;;28.00;18.25;;;;;;;6.99;100.00;102492.38;5072298;28;20527;-51
2023/05/25 03:14:29;;;;;;;29.30;18.52;;;;;;;7.00;100.00;102496.81;5072537;28;20029;-54
2023/05/25 03:16:55;;;;;;;26.67;18.98;;;;;;;7.02;100.00;102505.66;5072512;28;20437;-53
2023/05/25 03:19:20;;;;;;;30.40;19.38;;;;;;;7.03;100.00;102496.34;5072233;28;20158;-53
2023/05/25 03:21:46;;;;;;;27.02;17.85;;;;;;;7.02;100.00;102508.41;5072061;28;20029;-50
2023/05/25 03:24:11;;;;;;;27.52;18.45;;;;;;;7.03;100.00;102518.34;5072146;28;20376;-50
2023/05/25 03:26:37;;;;;;;29.10;19.10;;;;;;;7.01;100.00;102518.56;5054012;28;20044;-54
2023/05/25 03:29:05;;;;;;;27.77;18.30;;;;;;;7.00;100.00;102521.56;5052266;28;20053;-54
2023/05/25 03:31:30;;;;;;;25.75;17.88;;;;;;;6.95;100.00;102516.78;5051686;28;20111;-51
2023/05/25 03:33:56;;;;;;;26.30;18.50;;;;;;;7.00;100.00;102524.31;5047380;28;20100;-52
2023/05/25 03:36:21;;;;;;;28.25;18.27;;;;;;;6.99;100.00;102528.97;5051824;28;20024;-54
2023/05/25 03:38:46;;;;;;;25.85;18.25;;;;;;;6.96;100.00;102523.97;5051330;28;20040;-54
2023/05/25 03:41:12;;;;;;;28.20;18.35;;;;;;;6.95;100.00;102533.31;5051657;28;20791;-54
2023/05/25 03:43:37;;;;;;;27.85;18.58;;;;;;;6.94;100.00;102533.56;5051624;28;20025;-51
2023/05/25 03:46:02;;;;;;;27.50;18.63;;;;;;;6.92;100.00;102536.53;5051565;28;20029;-54
2023/05/25 03:48:27;;;;;;;27.27;18.02;;;;;;;6.92;100.00;102535.69;5051503;28;20029;-54
2023/05/25 03:50:53;;;;;;;29.73;19.73;;;;;;;6.91;100.00;102545.03;5051340;28;20147;-53
2023/05/25 03:53:18;;;;;;;26.70;19.58;;;;;;;6.93;100.00;102543.69;5050855;28;20029;-53
2023/05/25 03:55:44;;;;;;;28.60;19.67;;;;;;;6.93;100.00;102540.13;5051264;28;20389;-54
2023/05/25 03:58:09;;;;;;;29.30;19.42;;;;;;;6.91;100.00;102550.53;5051058;28;20040;-52
2023/05/25 04:00:35;;;;;;;28.13;18.10;;;;;;;6.91;100.00;102551.34;5051347;28;20107;-52
2023/05/25 04:03:01;;;;;;;27.50;19.30;;;;;;;6.87;100.00;102541.91;5051503;28;20033;-53
2023/05/25 04:05:26;;;;;;;29.60;21.25;;;;;;;6.90;100.00;102549.66;5033193;28;20151;-53
2023/05/25 04:07:51;;;;;;;30.30;21.58;;;;;;;6.92;100.00;102544.78;5050516;28;20456;-52
2023/05/25 04:10:16;;;;;;;28.10;21.33;;;;;;;6.91;100.00;102545.03;5050380;28;20025;-51
2023/05/25 04:12:42;;;;;;;31.98;21.33;;;;;;;6.97;100.00;102539.41;5051047;28;20021;-50
2023/05/25 04:15:08;;;;;;;29.13;21.25;;;;;;;6.99;100.00;102539.16;5050894;28;20017;-52
2023/05/25 04:17:34;;;;;;;33.10;22.42;;;;;;;7.02;100.00;102536.75;5050712;28;20187;-53
2023/05/25 04:20:00;;;;;;;29.45;22.20;;;;;;;7.02;100.00;102544.19;5051186;28;20037;-53
2023/05/25 04:22:25;;;;;;;29.92;22.02;;;;;;;7.03;100.00;102543.94;5050931;28;20039;-52
2023/05/25 04:24:50;;;;;;;30.02;20.98;;;;;;;7.06;100.00;102547.28;5050845;28;20121;-52
2023/05/25 04:27:16;;;;;;;28.25;19.92;;;;;;;7.07;100.00;102549.78;5050875;28;20025;-51
2023/05/25 04:29:41;;;;;;;31.85;20.95;;;;;;;7.11;100.00;102544.63;5050949;28;20029;-52
2023/05/25 04:32:13;;;;;;;31.98;20.77;;;;;;;7.13;100.00;102550.75;5050922;28;20025;-52
2023/05/25 04:34:41;;;;;;;31.08;21.23;;;;;;;7.15;100.00;102548.59;5025462;28;20111;-53
2023/05/25 04:37:07;;;;;;;29.15;19.88;;;;;;;7.22;100.00;102556.75;5051843;28;20444;-54
2023/05/25 04:39:33;;;;;;;28.13;19.30;;;;;;;7.26;100.00;102556.00;5051052;28;20052;-51
2023/05/25 04:42:00;;;;;;;29.05;20.50;;;;;;;7.32;100.00;102554.22;5051231;28;20033;-54
2023/05/25 04:44:28;;;;;;;26.98;18.95;;;;;;;7.42;100.00;102556.34;5051006;28;20086;-52
2023/05/25 04:46:54;;;;;;;29.27;19.95;;;;;;;7.49;100.00;102555.13;5051282;28;20032;-53
2023/05/25 04:49:20;;;;;;;28.38;18.38;;;;;;;7.55;100.00;102564.34;5051256;28;20032;-54
2023/05/25 04:51:45;;;;;;;24.63;17.48;;;;;;;7.61;100.00;102560.59;5050849;28;20028;-52
2023/05/25 04:54:11;;;;;;;26.27;18.25;;;;;;;7.69;100.00;102564.91;5050889;28;20069;-54
2023/05/25 04:56:36;;;;;;;26.08;17.25;;;;;;;7.69;100.00;102562.13;5050930;28;20061;-52
2023/05/25 04:59:03;;;;;;;25.13;17.10;;;;;;;7.78;100.00;102562.56;5050700;28;20056;-54
2023/05/25 05:01:29;;;;;;;25.67;17.00;;;;;;;7.87;100.00;102566.63;5050008;28;20558;-49
2023/05/25 05:03:54;;;;;;;29.98;17.95;;;;;;;7.93;100.00;102575.81;5050833;28;20033;-51
2023/05/25 05:06:20;;;;;;;27.95;16.13;;;;;;;8.02;100.00;102576.28;5035110;28;20025;-52
2023/05/25 05:08:45;;;;;;;24.85;16.38;;;;;;;8.10;100.00;102575.88;5054346;28;20029;-51
2023/05/25 05:11:11;;;;;;;26.38;15.75;;;;;;;8.14;100.00;102574.28;5054308;28;20476;-53
2023/05/25 05:13:36;;;;;;;25.08;16.90;;;;;;;8.20;100.00;102581.59;5054010;28;20377;-51
2023/05/25 05:16:01;;;;;;;26.17;16.40;;;;;;;8.27;100.00;102579.50;5054222;28;20116;-52
2023/05/25 05:18:27;;;;;;;23.70;15.30;;;;;;;8.35;100.00;102581.03;5053889;28;20025;-51
2023/05/25 05:20:53;;;;;;;25.33;15.88;;;;;;;8.39;100.00;102573.91;5053957;28;20031;-52
2023/05/25 05:23:18;;;;;;;24.90;15.50;;;;;;;8.46;100.00;102579.28;5053886;28;20029;-54
2023/05/25 05:25:44;;;;;;;27.65;15.93;;;;;;;8.55;100.00;102576.97;5054191;28;20391;-54
2023/05/25 05:28:10;;;;;;;24.40;15.55;;;;;;;8.59;100.00;102583.66;5054057;28;20045;-52
2023/05/25 05:30:35;;;;;;;25.27;15.68;;;;;;;8.61;100.00;102578.72;5052775;28;20035;-52
2023/05/25 05:33:01;;;;;;;25.40;15.48;;;;;;;8.71;100.00;102595.47;5047367;28;20025;-53
2023/05/25 05:35:26;;;;;;;23.40;15.55;;;;;;;8.81;100.00;102586.50;5053813;28;20053;-54
2023/05/25 05:37:51;;;;;;;26.20;15.27;;;;;;;8.89;100.00;102590.78;5053938;28;20033;-53
2023/05/25 05:40:17;;;;;;;26.75;15.93;;;;;;;9.01;100.00;102593.44;5053729;28;20068;-52
2023/05/25 05:42:42;;;;;;;24.77;15.65;;;;;;;9.09;100.00;102604.03;5053766;28;20120;-52
2023/05/25 05:45:08;;;;;;;25.17;15.50;;;;;;;9.13;100.00;102602.47;5053749;28;20037;-54
2023/05/25 05:47:33;;;;;;;25.58;15.30;;;;;;;9.19;100.00;102600.63;5053821;28;20079;-53
2023/05/25 05:49:59;;;;;;;27.92;15.10;;;;;;;9.27;100.00;102607.63;5053572;28;20025;-54
2023/05/25 05:52:24;;;;;;;25.65;15.65;;;;;;;9.39;100.00;102604.75;5053485;28;20021;-52
2023/05/25 05:54:49;;;;;;;26.05;14.98;;;;;;;9.47;100.00;102607.91;5053520;28;20468;-54
2023/05/25 05:57:15;;;;;;;25.13;15.20;;;;;;;9.59;100.00;102615.25;5053776;28;20028;-54
2023/05/25 05:59:41;;;;;;;27.15;15.40;;;;;;;9.74;100.00;102618.19;5053447;28;20033;-53
2023/05/25 06:02:06;;;;;;;25.13;14.93;;;;;;;9.81;100.00;102613.34;5053448;28;20025;-54
2023/05/25 06:04:32;;;;;;;26.48;14.95;;;;;;;9.92;100.00;102619.00;5053379;28;20119;-54
2023/05/25 06:06:57;;;;;;;24.80;14.43;;;;;;;9.97;100.00;102624.56;5053229;28;20056;-54
2023/05/25 06:09:23;;;;;;;23.85;14.60;;;;;;;10.03;100.00;102631.81;5053255;28;20124;-55
2023/05/25 06:11:48;;;;;;;23.85;14.15;;;;;;;10.07;100.00;102627.44;5053175;28;20032;-54
2023/05/25 06:14:14;;;;;;;24.42;14.00;;;;;;;10.16;100.00;102633.34;5053283;28;20024;-55
2023/05/25 06:16:39;;;;;;;23.70;14.38;;;;;;;10.26;100.00;102625.16;5052865;28;20028;-55
2023/05/25 06:19:05;;;;;;;23.23;13.63;;;;;;;10.42;100.00;102625.38;5053327;28;20041;-55
2023/05/25 06:21:30;;;;;;;23.30;14.52;;;;;;;10.53;100.00;102626.28;5053162;28;20028;-54
2023/05/25 06:23:58;;;;;;;25.77;14.57;;;;;;;10.61;100.00;102636.88;5053313;28;20033;-51
2023/05/25 06:26:23;;;;;;;21.27;13.38;;;;;;;10.70;100.00;102638.06;5052581;28;20124;-56
2023/05/25 06:28:49;;;;;;;23.20;14.02;;;;;;;10.84;100.00;102637.66;5049970;28;20524;-53
2023/05/25 06:31:15;;;;;;;23.05;14.05;;;;;;;10.94;100.00;102634.97;5053035;28;20476;-57
2023/05/25 06:33:40;;;;;;;23.50;13.68;;;;;;;11.01;100.00;102643.88;5052898;28;20071;-56
2023/05/25 06:36:08;;;;;;;23.77;13.80;;;;;;;11.06;99.88;102651.38;5052645;28;20029;-56
2023/05/25 06:38:33;;;;;;;23.63;13.27;;;;;;;11.16;100.00;102642.31;5054732;28;20040;-56
2023/05/25 06:41:03;;;;;;;23.50;13.98;;;;;;;11.21;97.96;102656.22;5072270;28;20029;-54
2023/05/25 06:43:29;;;;;;;26.17;14.38;;;;;;;11.30;99.04;102657.38;5072555;28;20024;-53
2023/05/25 06:45:54;;;;;;;26.02;14.70;;;;;;;11.44;97.50;102663.28;5072898;28;20047;-55
2023/05/25 06:48:19;;;;;;;23.80;13.57;;;;;;;11.59;97.05;102654.22;5072427;28;20158;-55
2023/05/25 06:50:45;;;;;;;23.80;13.48;;;;;;;11.77;96.62;102657.66;5072043;28;20020;-55
2023/05/25 06:53:11;;;;;;;22.63;13.48;;;;;;;11.86;95.75;102661.56;5042872;28;20076;-54
2023/05/25 06:55:36;;;;;;;23.38;13.90;;;;;;;11.98;94.70;102659.44;5030614;28;20029;-54
2023/05/25 06:58:01;;;;;;;22.67;12.77;;;;;;;12.05;93.59;102667.50;5029517;28;20075;-54
2023/05/25 07:00:27;;;;;;;23.63;13.60;;;;;;;11.93;92.62;102667.69;5029592;28;20733;-54
2023/05/25 07:02:52;;;;;;;21.05;13.10;;;;;;;11.94;93.42;102669.38;5029115;28;20830;-56
2023/05/25 07:05:18;;;;;;;22.90;13.52;;;;;;;11.96;91.99;102661.63;5029276;28;20071;-56
2023/05/25 07:07:43;;;;;;;22.02;13.65;;;;;;;12.03;90.42;102669.72;5029551;28;20028;-54
2023/05/25 07:10:08;;;;;;;23.85;13.32;;;;;;;12.05;90.24;102670.25;5030115;28;20037;-55
2023/05/25 07:12:34;;;;;;;23.00;13.82;;;;;;;12.19;91.13;102670.59;5030659;28;20734;-54
2023/05/25 07:14:59;;;;;;;21.60;13.02;;;;;;;12.35;89.50;102668.69;5031280;28;20521;-55
2023/05/25 07:17:25;;;;;;;22.90;13.50;;;;;;;12.48;88.81;102672.88;5031328;28;20033;-55
2023/05/25 07:19:50;;;;;;;22.88;12.77;;;;;;;12.36;86.87;102673.16;5031207;28;20096;-54
2023/05/25 07:22:17;;;;;;;24.45;12.95;;;;;;;12.35;87.91;102667.88;5031096;28;20022;-56
2023/05/25 07:24:44;;;;;;;23.20;12.93;;;;;;;12.36;87.55;102670.38;5031546;28;20064;-55
2023/05/25 07:27:10;;;;;;;23.13;13.38;;;;;;;12.33;87.59;102662.59;5031107;28;20039;-59
2023/05/25 07:29:35;;;;;;;21.58;13.10;;;;;;;12.44;88.24;102667.06;5029461;28;20112;-56
2023/05/25 07:32:00;;;;;;;23.15;13.30;;;;;;;12.56;86.90;102679.84;5031234;28;20040;-56
2023/05/25 07:34:26;;;;;;;23.13;13.30;;;;;;;12.64;86.35;102674.59;5031126;28;20029;-56
2023/05/25 07:36:51;;;;;;;23.27;13.18;;;;;;;12.74;85.11;102675.72;5031401;28;20140;-56
2023/05/25 07:39:16;;;;;;;24.15;13.77;;;;;;;12.77;85.13;102676.00;5029865;28;20017;-55
2023/05/25 07:41:41;;;;;;;22.58;13.65;;;;;;;12.83;84.92;102674.06;5029524;28;20382;-55
2023/05/25 07:44:07;;;;;;;22.70;13.40;;;;;;;12.93;84.45;102684.34;5030954;28;20451;-60
2023/05/25 07:46:32;;;;;;;23.73;12.63;;;;;;;13.02;83.88;102676.28;5030843;28;20037;-54
2023/05/25 07:48:58;;;;;;;22.85;12.90;;;;;;;13.18;83.75;102682.66;5030724;28;20102;-55
2023/05/25 07:51:25;;;;;;;20.83;12.93;;;;;;;13.34;82.02;102680.69;5031098;28;20025;-54
2023/05/25 07:53:52;;;;;;;21.65;12.57;;;;;;;13.40;80.99;102682.41;5030817;28;20033;-56
2023/05/25 07:56:18;;;;;;;22.58;12.70;;;;;;;13.19;80.69;102693.50;5030761;28;20036;-56
2023/05/25 07:58:43;;;;;;;21.80;12.40;;;;;;;13.14;82.43;102679.59;5031179;28;20029;-55
2023/05/25 08:01:08;;;;;;;22.15;12.48;;;;;;;13.23;82.37;102689.03;5031136;28;20041;-55
2023/05/25 08:03:34;;;;;;;20.40;11.70;;;;;;;13.36;81.40;102686.81;5030575;28;20473;-56
2023/05/25 08:05:59;;;;;;;22.88;12.20;;;;;;;13.35;81.75;102685.16;5030878;28;20037;-56
2023/05/25 08:08:25;;;;;;;23.38;12.48;;;;;;;13.30;81.03;102688.75;5030613;28;20051;-54
2023/05/25 08:10:50;;;;;;;20.92;11.70;;;;;;;13.34;81.73;102691.81;5030701;28;20120;-52
2023/05/25 08:13:15;;;;;;;22.60;12.32;;;;;;;13.46;81.11;102686.84;5030819;28;20030;-55
2023/05/25 08:15:40;;;;;;;24.00;12.50;;;;;;;13.82;80.91;102683.94;5030834;28;20034;-56
2023/05/25 08:18:06;;;;;;;21.73;11.93;;;;;;;14.01;77.70;102694.47;5030829;28;20159;-54
2023/05/25 08:20:31;;;;;;;23.23;12.77;;;;;;;14.10;77.35;102683.59;5030615;28;20033;-54
2023/05/25 08:22:58;;;;;;;21.55;12.02;;;;;;;14.19;76.87;102701.34;5030668;28;20029;-56
2023/05/25 08:25:23;;;;;;;20.77;12.20;;;;;;;14.01;75.28;102698.09;5030517;28;20041;-56
2023/05/25 08:27:49;;;;;;;22.70;12.57;;;;;;;13.94;75.77;102686.41;5030267;28;20057;-55
2023/05/25 08:30:14;;;;;;;22.10;12.30;;;;;;;13.95;75.49;102690.84;5030239;28;20029;-55
2023/05/25 08:32:39;;;;;;;22.20;12.30;;;;;;;13.98;75.53;102700.59;5030324;28;20056;-54
2023/05/25 08:35:05;;;;;;;23.45;11.98;;;;;;;14.15;75.38;102691.88;5030312;28;20033;-55
2023/05/25 08:37:31;;;;;;;20.90;11.57;;;;;;;14.35;74.23;102697.38;5030449;28;20030;-55
2023/05/25 08:39:59;;;;;;;23.63;11.57;;;;;;;14.46;73.48;102698.13;5029961;28;20119;-55
2023/05/25 08:42:25;;;;;;;21.20;10.82;;;;;;;14.66;73.96;102699.13;5031602;28;20456;-55
2023/05/25 08:44:50;;;;;;;21.33;11.32;;;;;;;14.77;71.87;102706.31;5033073;28;20041;-55
2023/05/25 08:47:16;;;;;;;21.85;11.30;;;;;;;14.65;72.43;102705.81;5032772;28;20163;-55
2023/05/25 08:49:43;;;;;;;23.48;12.27;;;;;;;14.74;72.08;102706.88;5032734;28;20116;-53
2023/05/25 08:52:13;;;;;;;23.02;12.00;;;;;;;14.86;71.76;102702.91;5032766;28;20033;-54
2023/05/25 08:54:42;;;;;;;19.52;11.57;;;;;;;14.98;71.50;102706.19;5032945;28;20033;-56
2023/05/25 08:57:19;;;;;;;21.73;11.43;;;;;;;15.01;70.67;102701.97;5032783;28;20036;-53
2023/05/25 08:59:55;;;;;;;22.92;11.50;;;;;;;14.87;70.17;102701.78;5032839;28;20025;-55
2023/05/25 09:02:39;;;;;;;22.60;11.60;;;;;;;14.87;69.97;102708.22;5032816;28;20157;-53
2023/05/25 09:05:04;;;;;;;;;;;;;;;15.02;70.87;102717.56;5015584;28;20100;-54
2023/05/25 09:07:30;;;;;;;20.83;11.27;;;;;;;14.99;70.82;102705.06;5032676;28;19940;-55
2023/05/25 09:09:57;;;;;;;21.17;10.60;;;;;;;15.06;70.39;102715.88;5032436;28;20084;-54
2023/05/25 09:12:22;;;;;;;18.73;10.43;;;;;;;15.19;69.61;102715.19;5032362;28;20176;-55
2023/05/25 09:14:48;;;;;;;22.35;11.75;;;;;;;15.22;68.98;102713.78;5032738;28;20029;-55
2023/05/25 09:17:14;;;;;;;21.48;11.35;;;;;;;15.17;70.20;102716.63;5032543;28;20393;-53
2023/05/25 09:19:40;;;;;;;20.40;10.85;;;;;;;15.20;70.50;102714.06;5032549;28;20018;-52
2023/05/25 09:22:05;;;;;;;22.27;11.13;;;;;;;15.17;69.05;102706.28;5032322;28;20044;-54
2023/05/25 09:24:31;;;;;;;19.77;10.55;;;;;;;14.95;68.59;102715.09;5032378;28;20033;-55
2023/05/25 09:26:57;;;;;;;21.17;10.43;;;;;;;14.86;68.91;102714.06;5032242;28;20115;-53
2023/05/25 09:29:22;;;;;;;20.13;10.25;;;;;;;14.89;68.59;102714.31;5032231;28;20045;-55
2023/05/25 09:31:47;;;;;;;20.90;9.90;;;;;;;14.87;67.13;102713.78;5032092;28;20092;-53
2023/05/25 09:34:13;;;;;;;19.10;9.95;;;;;;;14.85;66.77;102721.59;5031956;28;20057;-54
2023/05/25 09:36:40;;;;;;;19.17;10.38;;;;;;;15.03;66.54;102724.81;5032177;28;20025;-52
2023/05/25 09:39:09;;;;;;;19.83;10.90;;;;;;;15.13;66.05;102722.75;5030225;28;20026;-55
2023/05/25 09:41:35;;;;;;;22.55;10.55;;;;;;;15.22;65.55;102717.41;5031968;28;20041;-53
2023/05/25 09:44:00;;;;;;;21.48;10.68;;;;;;;15.31;65.61;102716.78;5031800;28;20029;-55
2023/05/25 09:46:27;;;;;;;19.33;10.18;;;;;;;15.36;64.99;102720.34;5031924;28;20037;-54
2023/05/25 09:48:53;;;;;;;19.23;10.02;;;;;;;15.37;65.02;102721.16;5031792;28;20034;-55
2023/05/25 09:51:20;;;;;;;22.20;11.27;;;;;;;15.52;65.25;102717.41;5030791;28;20112;-54
2023/05/25 09:53:46;;;;;;;21.00;10.75;;;;;;;15.43;64.88;102726.41;5031605;28;20021;-53
2023/05/25 09:56:11;;;;;;;21.05;11.18;;;;;;;15.44;66.52;102716.09;5031289;28;20037;-54
2023/05/25 09:58:36;;;;;;;21.55;10.65;;;;;;;15.48;65.83;102717.16;5030968;28;20025;-55
2023/05/25 10:01:03;;;;;;;20.33;10.80;;;;;;;15.62;65.37;102717.28;5031480;28;20037;-53
2023/05/25 10:03:29;;;;;;;19.95;10.48;;;;;;;15.62;65.04;102719.28;5031758;28;20029;-53
2023/05/25 10:05:55;;;;;;;21.20;10.07;;;;;;;15.66;64.99;102725.91;5023863;28;20021;-54
2023/05/25 10:08:23;;;;;;;19.77;9.93;;;;;;;15.74;64.65;102720.53;5029691;28;20037;-54
2023/05/25 10:10:49;;;;;;;21.92;10.35;;;;;;;15.86;64.87;102719.31;5029383;28;20113;-53
2023/05/25 10:13:18;;;;;;;21.30;10.50;;;;;;;15.97;64.63;102729.22;5029617;28;20022;-54
2023/05/25 10:15:45;;;;;;;22.50;10.98;;;;;;;15.91;64.30;102733.19;5030094;28;20037;-54
2023/05/25 10:18:13;;;;;;;19.42;10.30;;;;;;;15.85;64.13;102726.84;5029820;28;20030;-54
2023/05/25 10:20:38;;;;;;;19.48;10.32;;;;;;;15.97;63.34;102725.59;5030228;28;20029;-54
2023/05/25 10:23:09;;;;;;;22.98;10.55;;;;;;;16.01;63.77;102718.31;5025059;28;20098;-54
2023/05/25 10:25:38;;;;;;;20.45;10.45;;;;;;;16.02;61.63;102725.53;5028805;28;20120;-54
2023/05/25 10:28:26;;;;;;;21.33;9.55;;;;;;;16.01;62.06;102735.06;5029026;28;20045;-54
2023/05/25 10:30:52;;;;;;;20.38;10.23;;;;;;;16.01;62.00;102740.63;5028965;28;20103;-54
2023/05/25 10:33:19;;;;;;;20.17;10.32;;;;;;;15.69;62.41;102742.88;5029040;28;20116;-54
2023/05/25 10:35:45;;;;;;;21.63;10.73;;;;;;;15.60;63.46;102736.28;5034943;28;20128;-53
2023/05/25 10:38:11;;;;;;;19.48;10.52;;;;;;;15.65;63.96;102729.81;5035905;28;20536;-55
2023/05/25 10:40:37;;;;;;;23.20;10.68;;;;;;;15.85;62.75;102726.03;5038883;28;20036;-55
2023/05/25 10:43:04;;;;;;;20.95;10.43;;;;;;;16.20;60.61;102721.13;5044230;28;20029;-54
2023/05/25 10:45:30;;;;;;;18.77;9.90;;;;;;;16.48;60.02;102722.13;5050952;28;20396;-54
2023/05/25 10:47:56;;;;;;;20.67;10.30;;;;;;;16.64;59.40;102730.31;5041184;28;20034;-54
2023/05/25 10:50:26;;;;;;;20.08;10.40;;;;;;;16.57;59.69;102721.47;5030949;28;20064;-54
2023/05/25 10:53:01;;;;;;;21.48;10.70;;;;;;;16.66;60.31;102730.84;5031229;28;20033;-55
2023/05/25 10:55:41;;;;;;;19.88;10.70;;;;;;;16.66;61.08;102725.25;5031601;28;20037;-55
2023/05/25 10:58:09;;;;;;;20.80;11.55;;;;;;;16.70;61.12;102729.09;5030700;28;20041;-54
2023/05/25 11:00:34;;;;;;;19.83;11.18;;;;;;;16.81;60.22;102727.00;5030169;28;20034;-54
2023/05/25 11:03:00;;;;;;;20.13;10.63;;;;;;;16.84;60.22;102724.41;5030404;28;20068;-55
2023/05/25 11:05:25;;;;;;;21.55;10.45;;;;;;;16.82;60.22;102731.41;5030346;28;20064;-56